Aviation Digital Data Service (ADDS)

Output produced by METARs form (1803 UTC 29 August 2014)
found at http://aviationweather.gov/adds/metars/
 
KISP 291720Z 2918/3018 09007KT P6SM SCT050 SCT250 
     FM292000 16009KT P6SM FEW050 SCT250 
     FM300100 16004KT P6SM SCT250 
     FM300900 VRB03KT P6SM FEW020 BKN250 
     FM301500 17010KT P6SM SCT030 BKN150